Time;durP1;ratioP1;P1;durP2;ratioP2;P2;SDS_P1;SDS_P2;PMS_P1;PMS_P2;Temp;Humidity;BMP_temperature;BMP_pressure;BME280_temperature;BME280_humidity;BME280_pressure;Samples;Min_cycle;Max_cycle;Signal;HPM_P1;HPM_P2
2020/12/28 00:01:03;;;;;;;1.77;1.60;;;4.60;1.00;;;;;;4985974;28;20510;-62
2020/12/28 00:03:29;;;;;;;3.70;2.40;;;4.60;1.00;;;;;;4984755;28;20301;-62
2020/12/28 00:05:54;;;;;;;2.67;2.40;;;4.60;1.00;;;;;;4986803;28;20198;-62
2020/12/28 00:08:20;;;;;;;2.73;2.40;;;4.50;1.00;;;;;;4984960;28;20199;-62
2020/12/28 00:10:45;;;;;;;2.60;2.10;;;4.50;1.00;;;;;;4984682;28;20177;-62
2020/12/28 00:13:11;;;;;;;3.90;2.20;;;4.50;1.00;;;;;;4978343;28;20216;-62
2020/12/28 00:15:37;;;;;;;4.53;2.20;;;4.50;1.00;;;;;;4975958;28;20633;-62
2020/12/28 00:18:03;;;;;;;3.20;2.50;;;4.50;1.00;;;;;;4987728;28;20175;-62
2020/12/28 00:20:30;;;;;;;2.97;2.40;;;4.50;1.00;;;;;;4988662;28;20238;-62
2020/12/28 00:22:56;;;;;;;2.33;2.03;;;4.50;1.00;;;;;;4975876;28;20234;-62
2020/12/28 00:25:24;;;;;;;2.30;2.10;;;4.40;1.00;;;;;;4972600;28;20207;-62
2020/12/28 00:27:49;;;;;;;2.72;2.47;;;4.50;1.00;;;;;;4974793;28;20766;-62
2020/12/28 00:30:15;;;;;;;2.40;2.07;;;4.50;1.00;;;;;;4976569;28;20224;-63
2020/12/28 00:32:41;;;;;;;2.22;2.03;;;4.50;1.00;;;;;;4975758;28;20534;-62
2020/12/28 00:35:09;;;;;;;2.80;2.28;;;4.50;1.00;;;;;;4975371;28;20701;-62
2020/12/28 00:37:34;;;;;;;3.20;2.35;;;4.50;1.00;;;;;;4975602;28;20184;-62
2020/12/28 00:40:01;;;;;;;2.37;2.03;;;4.50;1.00;;;;;;4975596;28;20187;-62
2020/12/28 00:42:28;;;;;;;2.10;2.00;;;4.40;1.00;;;;;;4975510;28;20192;-62
2020/12/28 00:44:54;;;;;;;3.83;2.00;;;4.50;1.00;;;;;;4976254;28;20188;-62
2020/12/28 00:47:19;;;;;;;2.00;1.60;;;4.50;1.00;;;;;;4976682;28;20211;-62
2020/12/28 00:49:45;;;;;;;2.10;1.90;;;4.60;1.00;;;;;;4976883;28;20650;-62
2020/12/28 00:52:10;;;;;;;3.47;2.07;;;4.50;1.00;;;;;;4976643;28;20200;-62
2020/12/28 00:54:36;;;;;;;2.60;1.87;;;4.60;1.00;;;;;;4976541;28;20188;-62
2020/12/28 00:57:02;;;;;;;2.07;1.73;;;4.60;1.00;;;;;;4976848;28;20230;-62
2020/12/28 00:59:28;;;;;;;2.27;2.07;;;4.60;1.00;;;;;;4976527;28;20565;-62
2020/12/28 01:01:55;;;;;;;4.93;2.03;;;4.70;1.00;;;;;;4976515;28;20518;-62
2020/12/28 01:04:20;;;;;;;1.60;1.50;;;4.70;1.00;;;;;;4976164;28;20184;-62
2020/12/28 01:06:46;;;;;;;2.37;2.03;;;4.60;1.00;;;;;;4977616;28;20632;-62
2020/12/28 01:09:11;;;;;;;4.53;2.83;;;4.60;1.00;;;;;;4977592;28;20225;-62
2020/12/28 01:11:37;;;;;;;6.40;4.10;;;4.60;1.00;;;;;;4977403;28;20226;-62
2020/12/28 01:14:03;;;;;;;4.70;3.20;;;4.50;1.00;;;;;;4976834;28;20636;-62
2020/12/28 01:16:28;;;;;;;3.03;2.37;;;4.50;1.00;;;;;;4976356;28;20262;-61
2020/12/28 01:18:54;;;;;;;1.90;1.63;;;4.50;1.00;;;;;;4976694;28;20275;-61
2020/12/28 01:21:22;;;;;;;3.10;1.73;;;4.50;1.00;;;;;;4976266;28;20271;-62
2020/12/28 01:23:49;;;;;;;2.47;1.80;;;4.60;1.00;;;;;;4975783;28;20187;-62
2020/12/28 01:26:15;;;;;;;3.30;2.08;;;4.50;1.00;;;;;;4975911;28;20188;-62
2020/12/28 01:28:41;;;;;;;2.10;1.83;;;4.60;1.00;;;;;;4976195;28;20517;-62
2020/12/28 01:31:07;;;;;;;2.40;2.00;;;4.50;1.00;;;;;;4970690;28;20184;-61
2020/12/28 01:33:33;;;;;;;2.57;1.80;;;4.60;1.00;;;;;;4975462;28;20471;-61
2020/12/28 01:35:58;;;;;;;2.57;1.50;;;4.50;1.00;;;;;;4975833;28;20428;-62
2020/12/28 01:38:24;;;;;;;2.70;1.70;;;4.50;1.00;;;;;;4962383;28;20581;-62
2020/12/28 01:40:49;;;;;;;1.90;1.70;;;4.60;1.00;;;;;;4957297;28;20181;-62
2020/12/28 01:43:17;;;;;;;2.20;2.00;;;4.60;1.00;;;;;;4955617;28;20184;-62
2020/12/28 01:45:43;;;;;;;3.35;1.85;;;4.80;1.00;;;;;;4956245;28;20275;-62
2020/12/28 01:48:08;;;;;;;2.43;1.83;;;4.80;1.00;;;;;;4956254;28;20267;-62
2020/12/28 01:50:34;;;;;;;2.13;1.90;;;4.90;99.90;;;;;;4956394;28;20192;-62
2020/12/28 01:53:00;;;;;;;2.47;1.60;;;4.80;99.90;;;;;;4956091;28;20212;-62
2020/12/28 01:55:26;;;;;;;1.70;1.47;;;4.80;99.90;;;;;;4956036;28;20425;-62
2020/12/28 01:57:52;;;;;;;1.55;1.45;;;4.80;99.90;;;;;;4956266;28;20464;-61
2020/12/28 02:00:18;;;;;;;2.37;1.67;;;4.90;99.90;;;;;;4956031;28;20242;-61
2020/12/28 02:02:43;;;;;;;2.63;2.43;;;5.00;99.90;;;;;;4956151;28;20191;-62
2020/12/28 02:05:09;;;;;;;1.50;1.40;;;5.00;99.90;;;;;;4954869;28;20619;-62
2020/12/28 02:07:39;;;;;;;1.53;1.23;;;5.10;99.90;;;;;;4971011;28;20216;-62
2020/12/28 02:10:09;;;;;;;1.70;1.38;;;5.10;99.90;;;;;;4956312;28;20184;-62
2020/12/28 02:12:36;;;;;;;1.48;1.38;;;5.30;99.90;;;;;;4955950;28;20280;-62
2020/12/28 02:15:02;;;;;;;2.45;1.80;;;5.20;99.90;;;;;;4955803;28;20530;-62
2020/12/28 02:17:28;;;;;;;2.22;1.50;;;5.30;99.90;;;;;;4965242;28;20179;-62
2020/12/28 02:19:53;;;;;;;3.60;2.07;;;5.40;99.90;;;;;;4992381;28;20206;-62
2020/12/28 02:22:19;;;;;;;2.53;1.47;;;5.30;99.90;;;;;;4993118;28;20186;-62
2020/12/28 02:24:45;;;;;;;3.27;2.40;;;5.40;99.90;;;;;;4994198;28;20203;-62
2020/12/28 02:27:10;;;;;;;2.37;2.17;;;5.30;99.90;;;;;;4994410;28;20621;-62
2020/12/28 02:29:36;;;;;;;1.70;1.33;;;5.30;99.90;;;;;;4979513;28;20176;-62
2020/12/28 02:32:01;;;;;;;1.70;1.60;;;5.30;99.90;;;;;;4975015;28;20293;-61
2020/12/28 02:34:27;;;;;;;2.07;1.77;;;5.10;99.90;;;;;;4974709;28;20179;-62
2020/12/28 02:36:52;;;;;;;1.70;1.60;;;5.00;99.90;;;;;;4974810;28;20179;-62
2020/12/28 02:39:18;;;;;;;1.67;1.50;;;5.10;1.00;;;;;;4975054;28;20186;-62
2020/12/28 02:41:43;;;;;;;1.83;1.63;;;5.10;1.00;;;;;;4974827;28;20262;-62
2020/12/28 02:44:09;;;;;;;1.87;1.67;;;4.90;1.00;;;;;;4974562;28;20180;-62
2020/12/28 02:46:35;;;;;;;2.17;1.67;;;4.90;1.00;;;;;;4973960;28;20503;-62
2020/12/28 02:49:00;;;;;;;1.33;1.23;;;4.80;1.00;;;;;;4974745;28;20186;-62
2020/12/28 02:51:26;;;;;;;1.40;1.30;;;4.90;1.00;;;;;;4974871;28;20602;-62
2020/12/28 02:53:51;;;;;;;1.63;1.40;;;4.90;1.00;;;;;;4974164;28;20641;-62
2020/12/28 02:56:17;;;;;;;2.07;1.90;;;4.90;1.00;;;;;;4974847;28;20183;-61
2020/12/28 02:58:43;;;;;;;1.30;1.20;;;4.90;1.00;;;;;;4974682;28;20192;-62
2020/12/28 03:01:08;;;;;;;2.57;1.70;;;5.10;1.00;;;;;;4974790;28;20637;-62
2020/12/28 03:03:34;;;;;;;1.73;1.63;;;4.90;1.00;;;;;;4973399;28;20640;-61
2020/12/28 03:05:59;;;;;;;1.90;1.70;;;4.90;1.00;;;;;;4974538;28;20629;-61
2020/12/28 03:08:25;;;;;;;1.50;1.40;;;5.00;1.00;;;;;;4974687;28;20186;-61
2020/12/28 03:10:50;;;;;;;2.27;1.60;;;5.10;1.00;;;;;;4974482;28;20219;-62
2020/12/28 03:13:16;;;;;;;1.90;1.80;;;5.20;1.00;;;;;;4974152;28;20611;-62
2020/12/28 03:15:42;;;;;;;1.50;1.30;;;5.10;1.00;;;;;;4974572;28;20183;-62
2020/12/28 03:18:07;;;;;;;3.07;1.50;;;5.10;1.00;;;;;;4984338;28;20190;-62
2020/12/28 03:20:33;;;;;;;1.37;1.20;;;5.10;1.00;;;;;;4985488;28;20259;-62
2020/12/28 03:22:58;;;;;;;1.63;1.53;;;5.10;1.00;;;;;;4974450;28;20182;-62
2020/12/28 03:25:24;;;;;;;1.40;1.30;;;5.10;1.00;;;;;;4974267;28;20193;-62
2020/12/28 03:27:49;;;;;;;1.60;1.50;;;5.20;1.00;;;;;;4974730;28;20231;-62
2020/12/28 03:30:15;;;;;;;1.33;1.20;;;5.20;1.00;;;;;;4973867;28;20678;-62
2020/12/28 03:32:40;;;;;;;1.50;1.40;;;5.30;1.00;;;;;;4980147;28;20238;-62
2020/12/28 03:35:06;;;;;;;2.50;1.93;;;5.30;1.00;;;;;;4991748;28;20179;-61
2020/12/28 03:37:32;;;;;;;2.63;1.63;;;5.40;1.00;;;;;;4974989;28;20207;-61
2020/12/28 03:39:57;;;;;;;1.57;1.37;;;5.40;1.00;;;;;;4973108;28;20183;-61
2020/12/28 03:42:23;;;;;;;1.60;1.50;;;5.40;1.00;;;;;;4974122;28;20191;-61
2020/12/28 03:44:48;;;;;;;1.80;1.47;;;5.30;1.00;;;;;;4974394;28;20188;-61
2020/12/28 03:47:14;;;;;;;1.93;1.77;;;5.30;1.00;;;;;;4974426;28;20181;-61
2020/12/28 03:49:39;;;;;;;1.57;1.30;;;5.30;1.00;;;;;;4974917;28;20180;-61
2020/12/28 03:52:05;;;;;;;1.97;1.67;;;5.50;1.00;;;;;;4974473;28;20208;-61
2020/12/28 03:54:30;;;;;;;1.00;0.90;;;5.60;1.00;;;;;;4974597;28;20188;-61
2020/12/28 03:56:56;;;;;;;1.40;1.20;;;5.50;1.00;;;;;;4974800;28;20187;-61
2020/12/28 03:59:21;;;;;;;1.20;1.10;;;5.60;1.00;;;;;;4974612;28;20192;-61
2020/12/28 04:01:47;;;;;;;1.80;1.60;;;5.50;99.90;;;;;;4973812;28;20192;-61
2020/12/28 04:04:13;;;;;;;1.35;1.25;;;5.50;1.00;;;;;;4974515;28;20650;-61
2020/12/28 04:06:38;;;;;;;1.50;1.40;;;5.50;1.00;;;;;;4977157;28;20184;-61
2020/12/28 04:09:04;;;;;;;1.83;1.53;;;5.40;99.90;;;;;;4978194;28;20180;-62
2020/12/28 04:11:29;;;;;;;1.27;1.07;;;5.30;1.00;;;;;;4978290;28;20283;-62
2020/12/28 04:13:55;;;;;;;0.90;0.90;;;5.40;1.00;;;;;;4977363;28;20223;-62
2020/12/28 04:16:20;;;;;;;1.77;1.67;;;5.40;1.00;;;;;;4976458;28;20184;-62
2020/12/28 04:18:46;;;;;;;1.30;1.20;;;5.10;1.00;;;;;;4978101;28;20181;-61
2020/12/28 04:21:11;;;;;;;2.30;1.80;;;5.00;1.00;;;;;;4977517;28;20278;-62
2020/12/28 04:23:37;;;;;;;2.90;1.80;;;5.00;1.00;;;;;;4977176;28;20196;-62
2020/12/28 04:26:04;;;;;;;1.57;1.40;;;5.00;1.00;;;;;;4977446;28;20267;-62
2020/12/28 04:28:30;;;;;;;2.13;1.30;;;5.20;1.00;;;;;;4977211;28;20574;-62
2020/12/28 04:30:55;;;;;;;1.87;1.70;;;5.10;1.00;;;;;;4977514;28;20184;-62
2020/12/28 04:33:21;;;;;;;1.10;1.10;;;5.00;1.00;;;;;;4976835;28;20495;-62
2020/12/28 04:35:46;;;;;;;1.90;1.70;;;4.90;1.00;;;;;;4977489;28;20214;-62
2020/12/28 04:38:12;;;;;;;1.43;1.33;;;5.00;1.00;;;;;;4977316;28;20234;-62
2020/12/28 04:40:38;;;;;;;2.77;2.10;;;5.00;1.00;;;;;;4977288;28;20570;-62
2020/12/28 04:43:13;;;;;;;1.60;1.50;;;4.90;1.00;;;;;;4975993;28;20518;-62
2020/12/28 04:45:41;;;;;;;2.08;1.80;;;4.90;1.00;;;;;;4977261;28;20310;-62
2020/12/28 04:48:08;;;;;;;1.73;1.63;;;5.00;1.00;;;;;;4976983;28;20219;-62
2020/12/28 04:50:38;;;;;;;2.25;1.88;;;5.10;1.00;;;;;;4977296;28;20613;-62
2020/12/28 04:53:04;;;;;;;1.90;1.50;;;5.10;1.00;;;;;;4976894;28;20641;-62
2020/12/28 04:55:31;;;;;;;1.75;1.63;;;5.10;1.00;;;;;;4977438;28;20180;-62
2020/12/28 04:57:57;;;;;;;2.25;2.03;;;5.20;1.00;;;;;;4977229;28;20180;-62
2020/12/28 05:00:23;;;;;;;1.80;1.70;;;5.30;1.00;;;;;;4977014;28;20342;-62
2020/12/28 05:02:48;;;;;;;1.40;1.30;;;5.50;1.00;;;;;;4976863;28;20255;-62
2020/12/28 05:05:14;;;;;;;1.30;1.20;;;5.50;1.00;;;;;;4976909;28;20490;-62
2020/12/28 05:07:47;;;;;;;1.47;1.37;;;5.50;1.00;;;;;;4983483;28;20179;-62
2020/12/28 05:10:26;;;;;;;2.83;1.88;;;5.60;1.00;;;;;;4991493;28;20203;-63
2020/12/28 05:12:52;;;;;;;1.50;1.40;;;5.50;1.00;;;;;;4975703;28;20216;-62
2020/12/28 05:15:18;;;;;;;4.57;2.40;;;5.40;1.00;;;;;;4976392;28;20606;-62
2020/12/28 05:17:52;;;;;;;4.75;2.42;;;5.50;1.00;;;;;;4976408;28;20454;-62
2020/12/28 05:20:22;;;;;;;2.25;2.05;;;5.60;1.00;;;;;;4976490;28;20258;-62
2020/12/28 05:22:54;;;;;;;3.15;2.03;;;5.50;1.00;;;;;;4976404;28;20617;-62
2020/12/28 05:25:22;;;;;;;3.42;2.20;;;5.50;1.00;;;;;;4976153;28;20184;-62
2020/12/28 05:27:49;;;;;;;4.53;1.50;;;5.50;1.00;;;;;;4976234;28;20639;-62
2020/12/28 05:30:15;;;;;;;3.17;2.13;;;5.60;1.00;;;;;;4976185;28;20203;-62
2020/12/28 05:32:45;;;;;;;1.90;1.73;;;5.50;1.00;;;;;;4976086;28;20203;-62
2020/12/28 05:35:15;;;;;;;2.70;2.00;;;5.40;1.00;;;;;;4975842;28;20238;-62
2020/12/28 05:37:47;;;;;;;3.33;2.47;;;5.50;1.00;;;;;;4976291;28;20176;-62
2020/12/28 05:40:14;;;;;;;1.90;1.77;;;5.50;1.00;;;;;;4975937;28;20609;-62
2020/12/28 05:42:50;;;;;;;2.35;1.60;;;5.40;1.00;;;;;;4975967;28;20192;-62
2020/12/28 05:45:16;;;;;;;1.95;1.85;;;5.20;1.00;;;;;;4975491;28;20549;-62
2020/12/28 05:47:42;;;;;;;1.90;1.63;;;5.20;1.00;;;;;;4975817;28;20184;-62
2020/12/28 05:50:09;;;;;;;1.67;1.40;;;5.10;1.00;;;;;;4975747;28;20216;-62
2020/12/28 05:52:45;;;;;;;1.85;1.70;;;5.10;1.00;;;;;;4975877;28;20470;-62
2020/12/28 05:55:16;;;;;;;1.58;1.33;;;5.20;1.00;;;;;;4975793;28;20564;-62
2020/12/28 05:57:42;;;;;;;2.78;1.50;;;5.20;1.00;;;;;;4975831;28;20218;-62
2020/12/28 06:00:08;;;;;;;2.75;1.60;;;5.00;1.00;;;;;;4975413;28;20214;-62
2020/12/28 06:02:37;;;;;;;2.50;2.00;;;4.90;1.00;;;;;;4975567;28;20191;-62
2020/12/28 06:05:07;;;;;;;2.75;1.90;;;5.00;1.00;;;;;;4975281;28;20248;-62
2020/12/28 06:07:33;;;;;;;2.63;1.80;;;4.80;1.00;;;;;;4975394;28;20188;-62
2020/12/28 06:09:59;;;;;;;2.10;1.90;;;4.80;1.00;;;;;;4975500;28;20176;-62
2020/12/28 06:12:24;;;;;;;2.27;2.07;;;4.80;7.80;;;;;;4975507;28;20261;-62
2020/12/28 06:14:50;;;;;;;2.30;2.07;;;4.80;11.50;;;;;;4975039;28;20176;-62
2020/12/28 06:17:16;;;;;;;2.55;2.00;;;4.80;18.50;;;;;;4975446;28;20184;-62
2020/12/28 06:19:42;;;;;;;2.07;1.60;;;4.80;23.60;;;;;;4975483;28;20188;-65
2020/12/28 06:22:19;;;;;;;2.40;2.20;;;4.70;24.90;;;;;;4975417;28;20909;-62
2020/12/28 06:24:55;;;;;;;2.33;1.80;;;4.70;36.00;;;;;;4975385;28;20455;-62
2020/12/28 06:27:26;;;;;;;2.28;2.00;;;4.70;39.10;;;;;;4975211;28;20191;-62
2020/12/28 06:29:52;;;;;;;3.38;1.88;;;4.50;32.20;;;;;;4974917;28;20625;-62
2020/12/28 06:32:17;;;;;;;3.10;2.00;;;4.60;41.10;;;;;;4975273;28;20270;-62
2020/12/28 06:34:44;;;;;;;2.50;2.30;;;4.50;30.10;;;;;;4974962;28;20191;-61
2020/12/28 06:37:11;;;;;;;2.55;1.80;;;4.50;27.90;;;;;;4975244;28;20577;-62
2020/12/28 06:39:36;;;;;;;2.08;1.85;;;4.60;25.90;;;;;;4974840;28;20176;-62
2020/12/28 06:42:12;;;;;;;1.93;1.50;;;4.60;24.10;;;;;;4974972;28;20255;-62
2020/12/28 06:44:39;;;;;;;2.70;2.47;;;4.80;33.60;;;;;;4974822;28;20172;-62
2020/12/28 06:47:21;;;;;;;3.10;2.00;;;4.80;30.40;;;;;;4974972;28;20203;-62
2020/12/28 06:49:48;;;;;;;2.00;1.60;;;4.80;15.20;;;;;;4974819;28;20226;-62
2020/12/28 06:52:17;;;;;;;2.25;2.05;;;4.80;1.00;;;;;;4975408;28;20239;-62
2020/12/28 06:54:44;;;;;;;3.63;2.60;;;4.80;1.00;;;;;;4975464;28;20230;-61
2020/12/28 06:57:10;;;;;;;2.22;1.85;;;4.60;1.00;;;;;;4974876;28;20614;-61
2020/12/28 06:59:38;;;;;;;2.97;2.00;;;4.60;1.00;;;;;;4974577;28;20215;-61
2020/12/28 07:02:04;;;;;;;2.95;2.75;;;4.60;1.00;;;;;;4974624;28;20628;-61
2020/12/28 07:04:38;;;;;;;3.47;1.70;;;4.50;1.00;;;;;;4974399;28;20184;-62
2020/12/28 07:07:06;;;;;;;3.13;2.10;;;4.40;1.00;;;;;;4975140;28;20428;-61
2020/12/28 07:09:32;;;;;;;2.55;2.35;;;4.50;1.00;;;;;;4974476;28;20621;-62
2020/12/28 07:12:08;;;;;;;2.65;2.45;;;4.50;1.00;;;;;;4974499;28;20567;-62
2020/12/28 07:14:34;;;;;;;3.20;2.47;;;4.50;1.00;;;;;;4974221;28;20632;-58
2020/12/28 07:17:00;;;;;;;3.03;2.60;;;4.50;1.00;;;;;;4974525;28;20195;-58
2020/12/28 07:19:26;;;;;;;4.20;2.03;;;4.40;1.00;;;;;;4974290;28;20180;-58
2020/12/28 07:21:52;;;;;;;2.40;2.13;;;4.40;1.00;;;;;;4974402;28;20188;-58
2020/12/28 07:24:18;;;;;;;3.00;2.17;;;4.30;1.00;;;;;;4974042;28;20259;-58
2020/12/28 07:26:44;;;;;;;3.10;2.40;;;4.20;1.00;;;;;;4974291;28;20184;-59
2020/12/28 07:29:18;;;;;;;3.00;2.57;;;4.10;1.00;;;;;;4974126;28;20180;-58
2020/12/28 07:31:45;;;;;;;3.47;2.42;;;4.10;1.00;;;;;;4975068;28;20434;-60
2020/12/28 07:34:19;;;;;;;2.17;1.92;;;4.00;1.00;;;;;;4974026;28;20215;-58
2020/12/28 07:36:53;;;;;;;3.67;2.22;;;4.10;1.00;;;;;;4974372;28;20263;-60
2020/12/28 07:39:23;;;;;;;2.38;2.17;;;4.20;1.00;;;;;;4974535;28;20509;-58
2020/12/28 07:41:54;;;;;;;4.13;2.72;;;4.20;1.00;;;;;;4977303;28;20235;-60
2020/12/28 07:44:20;;;;;;;3.10;2.20;;;4.30;1.00;;;;;;4977764;28;20263;-60
2020/12/28 07:46:55;;;;;;;2.70;2.10;;;4.30;1.00;;;;;;4976916;28;20211;-60
2020/12/28 07:49:28;;;;;;;3.30;2.65;;;4.10;1.00;;;;;;4977875;28;20183;-60
2020/12/28 07:52:24;;;;;;;2.13;1.92;;;4.00;1.00;;;;;;4977726;28;20548;-59
2020/12/28 07:55:05;;;;;;;2.60;2.40;;;4.00;1.00;;;;;;4969515;28;20251;-59
2020/12/28 07:57:52;;;;;;;4.00;3.15;;;4.10;1.00;;;;;;4977028;28;20211;-59
2020/12/28 08:00:20;;;;;;;4.15;3.75;;;4.20;1.00;;;;;;4977726;28;20199;-59
2020/12/28 08:02:50;;;;;;;3.50;2.58;;;4.30;1.00;;;;;;4977530;28;20261;-60
2020/12/28 08:05:18;;;;;;;3.10;2.45;;;4.10;1.00;;;;;;4983442;28;20202;-60
2020/12/28 08:07:44;;;;;;;4.70;2.53;;;4.20;1.00;;;;;;4997001;28;20221;-60
2020/12/28 08:10:10;;;;;;;3.80;2.60;;;4.20;1.00;;;;;;4997069;28;20215;-60
2020/12/28 08:12:40;;;;;;;2.75;2.30;;;4.20;1.00;;;;;;4996762;28;20200;-60
2020/12/28 08:15:06;;;;;;;4.65;3.33;;;4.20;1.00;;;;;;4996606;28;20210;-60
2020/12/28 08:17:31;;;;;;;5.17;3.03;;;4.20;1.00;;;;;;4996815;28;20179;-58
2020/12/28 08:20:12;;;;;;;3.97;2.60;;;4.10;1.00;;;;;;4996938;28;20763;-58
2020/12/28 08:22:40;;;;;;;2.92;2.60;;;4.20;1.00;;;;;;4996709;28;20175;-58
2020/12/28 08:25:07;;;;;;;3.53;3.22;;;4.10;1.00;;;;;;4996502;28;20244;-58
2020/12/28 08:27:33;;;;;;;3.60;2.70;;;4.10;1.00;;;;;;4996667;28;20183;-59
2020/12/28 08:30:01;;;;;;;4.10;3.17;;;4.10;1.00;;;;;;4967313;28;20269;-59
2020/12/28 08:32:28;;;;;;;3.60;3.05;;;4.10;1.00;;;;;;4976030;28;20204;-59
2020/12/28 08:34:55;;;;;;;3.67;3.13;;;4.10;1.00;;;;;;4977001;28;20179;-63
2020/12/28 08:37:21;;;;;;;6.25;4.00;;;4.10;1.00;;;;;;4976417;28;20511;-62
2020/12/28 08:39:47;;;;;;;10.03;6.37;;;4.00;1.00;;;;;;4976194;28;20188;-62
2020/12/28 08:42:12;;;;;;;19.33;10.70;;;4.00;1.00;;;;;;4976733;28;20439;-62
2020/12/28 08:44:41;;;;;;;5.60;4.60;;;4.10;1.00;;;;;;4976048;28;20199;-61
2020/12/28 08:47:12;;;;;;;3.45;2.50;;;4.30;1.00;;;;;;4976418;28;20249;-63
2020/12/28 08:49:39;;;;;;;12.15;7.60;;;4.20;99.90;;;;;;4976733;28;20203;-61
2020/12/28 08:52:16;;;;;;;9.30;5.85;;;4.30;1.00;;;;;;4976733;28;20215;-61
2020/12/28 08:54:51;;;;;;;12.57;7.90;;;4.50;99.90;;;;;;4976780;28;20208;-63
2020/12/28 08:57:22;;;;;;;4.43;3.65;;;4.70;99.90;;;;;;4975290;28;20494;-64
2020/12/28 08:59:47;;;;;;;4.95;3.60;;;4.70;99.90;;;;;;4976209;28;20188;-64
2020/12/28 09:02:26;;;;;;;12.00;6.00;;;4.50;99.90;;;;;;4976312;28;20251;-63
2020/12/28 09:04:52;;;;;;;2.80;2.42;;;4.50;99.90;;;;;;4975764;28;20565;-64
2020/12/28 09:07:19;;;;;;;9.07;6.47;;;4.50;92.90;;;;;;4976153;28;20206;-61
2020/12/28 09:09:47;;;;;;;11.25;6.40;;;4.50;41.80;;;;;;4976206;28;20184;-61
2020/12/28 09:12:13;;;;;;;3.90;2.80;;;4.30;1.00;;;;;;4975841;28;20180;-62
2020/12/28 09:14:39;;;;;;;5.03;3.60;;;4.20;1.00;;;;;;4975635;28;20271;-62
2020/12/28 09:17:05;;;;;;;17.08;8.05;;;4.30;1.00;;;;;;4975838;28;20181;-62
2020/12/28 09:19:31;;;;;;;9.15;4.82;;;4.20;1.00;;;;;;4975939;28;20180;-62
2020/12/28 09:21:58;;;;;;;5.07;3.80;;;4.30;1.00;;;;;;4975774;28;20315;-62
2020/12/28 09:24:24;;;;;;;5.82;3.75;;;4.30;1.00;;;;;;4980562;28;20274;-61
2020/12/28 09:26:50;;;;;;;13.33;6.90;;;4.50;1.00;;;;;;4985746;28;20315;-61
2020/12/28 09:29:16;;;;;;;4.22;2.70;;;4.60;1.00;;;;;;4994990;28;20875;-62
2020/12/28 09:31:42;;;;;;;3.60;3.20;;;4.80;1.00;;;;;;4993743;28;20251;-62
2020/12/28 09:34:07;;;;;;;4.00;2.70;;;4.90;99.90;;;;;;4975282;28;20224;-62
2020/12/28 09:36:33;;;;;;;3.87;2.77;;;4.80;99.90;;;;;;4975292;28;20181;-62
2020/12/28 09:38:59;;;;;;;4.07;3.05;;;5.00;99.90;;;;;;4972882;28;20626;-62
2020/12/28 09:41:25;;;;;;;3.67;2.93;;;5.20;99.90;;;;;;4975096;28;20214;-60
2020/12/28 09:43:51;;;;;;;4.63;3.40;;;5.40;99.90;;;;;;4974850;28;20446;-58
2020/12/28 09:46:20;;;;;;;4.22;3.38;;;5.60;1.00;;;;;;4994843;28;20262;-58
2020/12/28 09:48:49;;;;;;;7.10;3.00;;;5.70;99.90;;;;;;4994909;28;20222;-58
2020/12/28 09:51:15;;;;;;;4.90;3.53;;;5.60;1.00;;;;;;4986892;28;20668;-58
2020/12/28 09:53:42;;;;;;;3.60;3.17;;;5.80;99.90;;;;;;4972904;28;20299;-62
2020/12/28 09:56:08;;;;;;;4.00;3.05;;;5.90;99.90;;;;;;4964198;28;20674;-61
2020/12/28 09:58:34;;;;;;;5.72;3.72;;;5.60;1.00;;;;;;4965753;28;20200;-62
2020/12/28 10:01:00;;;;;;;5.13;3.00;;;5.60;99.90;;;;;;4974945;28;20188;-61
2020/12/28 10:03:26;;;;;;;3.40;3.10;;;5.70;1.00;;;;;;4973145;28;20172;-62
2020/12/28 10:05:52;;;;;;;3.20;2.50;;;5.60;1.00;;;;;;4975103;28;20192;-62
2020/12/28 10:08:17;;;;;;;4.03;3.63;;;5.60;1.00;;;;;;4974444;28;20192;-63
2020/12/28 10:10:44;;;;;;;3.83;3.00;;;5.30;1.00;;;;;;4974485;28;20274;-62
2020/12/28 10:13:11;;;;;;;3.20;2.40;;;5.10;1.00;;;;;;4974749;28;20216;-62
2020/12/28 10:15:37;;;;;;;3.63;2.70;;;5.00;99.90;;;;;;4974138;28;20184;-61
2020/12/28 10:18:36;;;;;;;2.77;2.53;;;4.90;1.00;;;;;;4975033;28;20271;-60
2020/12/28 10:21:02;;;;;;;2.60;2.38;;;4.90;1.00;;;;;;4974944;28;20168;-60
2020/12/28 10:23:27;;;;;;;3.03;2.30;;;5.00;1.00;;;;;;4973701;28;20554;-62
2020/12/28 10:25:53;;;;;;;4.20;3.27;;;5.20;1.00;;;;;;4974663;28;20260;-63
2020/12/28 10:28:19;;;;;;;3.30;2.83;;;5.20;1.00;;;;;;4973236;28;20179;-63
2020/12/28 10:30:44;;;;;;;6.07;4.67;;;5.40;1.00;;;;;;4974714;28;20184;-63
2020/12/28 10:33:10;;;;;;;14.33;8.27;;;5.60;1.00;;;;;;4973875;28;20203;-66
2020/12/28 10:35:35;;;;;;;4.70;4.13;;;5.60;99.90;;;;;;4974464;28;20172;-64
2020/12/28 10:38:01;;;;;;;5.50;2.40;;;5.70;99.90;;;;;;4974535;28;20183;-60
2020/12/28 10:40:26;;;;;;;3.33;2.30;;;5.80;1.00;;;;;;4974190;28;20278;-61
2020/12/28 10:42:52;;;;;;;4.17;3.10;;;5.60;1.00;;;;;;4974534;28;20262;-60
2020/12/28 10:45:17;;;;;;;3.23;2.63;;;5.60;1.00;;;;;;4974196;28;20184;-61
2020/12/28 10:47:43;;;;;;;4.30;3.40;;;5.60;1.00;;;;;;4974380;28;20190;-62
2020/12/28 10:50:09;;;;;;;4.90;3.40;;;5.50;1.00;;;;;;4974270;28;20259;-63
2020/12/28 10:52:34;;;;;;;5.97;3.33;;;5.60;1.00;;;;;;4974454;28;20232;-63
2020/12/28 10:55:00;;;;;;;3.80;2.67;;;5.50;1.00;;;;;;4974256;28;20176;-64
2020/12/28 10:57:25;;;;;;;4.83;2.70;;;5.60;99.40;;;;;;4974696;28;20188;-60
2020/12/28 10:59:51;;;;;;;2.53;2.20;;;5.70;99.90;;;;;;4974710;28;20262;-60
2020/12/28 11:02:17;;;;;;;4.53;2.97;;;5.70;58.60;;;;;;4974788;28;20928;-60
2020/12/28 11:04:43;;;;;;;4.60;3.00;;;5.80;1.00;;;;;;4975276;28;20275;-61
2020/12/28 11:07:09;;;;;;;4.78;3.67;;;5.70;1.00;;;;;;4974752;28;20192;-62
2020/12/28 11:09:35;;;;;;;4.70;2.70;;;5.80;1.00;;;;;;4974670;28;20236;-61
2020/12/28 11:12:01;;;;;;;3.73;3.20;;;5.60;1.00;;;;;;4974224;28;20191;-62
2020/12/28 11:14:27;;;;;;;4.20;2.80;;;5.70;99.90;;;;;;4975054;28;20238;-60
2020/12/28 11:16:52;;;;;;;3.00;2.67;;;5.70;99.90;;;;;;4977743;28;20184;-60
2020/12/28 11:19:18;;;;;;;4.60;2.97;;;5.80;1.00;;;;;;4977915;28;20322;-63
2020/12/28 11:21:44;;;;;;;5.00;3.10;;;5.80;99.90;;;;;;4977881;28;20200;-62
2020/12/28 11:24:09;;;;;;;3.78;2.45;;;6.10;99.90;;;;;;4957939;28;20204;-62
2020/12/28 11:26:35;;;;;;;3.60;3.03;;;6.40;1.00;;;;;;4958603;29;20180;-61
2020/12/28 11:29:05;;;;;;;3.63;2.93;;;6.20;1.00;;;;;;4958827;29;20191;-62
2020/12/28 11:31:31;;;;;;;4.55;3.10;;;6.20;1.00;;;;;;4958621;29;20484;-61
2020/12/28 11:33:57;;;;;;;4.90;2.97;;;6.30;1.00;;;;;;4958000;29;20216;-60
2020/12/28 11:36:23;;;;;;;3.00;2.60;;;6.10;6.50;;;;;;4958634;29;20928;-61
2020/12/28 11:38:49;;;;;;;3.40;2.30;;;6.20;99.90;;;;;;4958750;29;20804;-61
2020/12/28 11:41:15;;;;;;;4.05;3.13;;;6.00;13.20;;;;;;4994136;28;20215;-61
2020/12/28 11:43:42;;;;;;;3.70;2.78;;;6.10;1.00;;;;;;4996798;28;20191;-61
2020/12/28 11:46:09;;;;;;;7.88;5.45;;;6.10;99.90;;;;;;4997295;28;20198;-62
2020/12/28 11:48:42;;;;;;;3.67;2.60;;;6.20;99.90;;;;;;4990028;28;20187;-62
2020/12/28 11:51:09;;;;;;;5.00;2.72;;;6.10;99.90;;;;;;4988408;28;20199;-62
2020/12/28 11:53:38;;;;;;;5.22;3.13;;;6.10;99.90;;;;;;4996860;28;20243;-62
2020/12/28 11:56:05;;;;;;;3.80;2.38;;;6.30;1.00;;;;;;4997515;28;20179;-62
2020/12/28 11:58:33;;;;;;;2.40;2.20;;;6.30;99.90;;;;;;4996986;28;20476;-63
2020/12/28 12:00:59;;;;;;;4.30;3.40;;;6.00;99.90;;;;;;4994045;28;20539;-61
2020/12/28 12:03:28;;;;;;;3.15;2.80;;;6.00;1.00;;;;;;4987936;28;20184;-61
2020/12/28 12:05:54;;;;;;;5.50;3.50;;;6.00;1.00;;;;;;4984982;28;20279;-62
2020/12/28 12:08:20;;;;;;;5.45;3.38;;;6.00;1.00;;;;;;4997160;28;20183;-62
2020/12/28 12:10:45;;;;;;;11.63;6.73;;;6.10;1.00;;;;;;4990241;28;20197;-61
2020/12/28 12:13:11;;;;;;;3.03;2.73;;;6.20;8.10;;;;;;4986541;28;20322;-61
2020/12/28 12:15:48;;;;;;;5.50;3.57;;;6.30;1.00;;;;;;4976845;28;20467;-62
2020/12/28 12:18:14;;;;;;;2.95;2.47;;;6.40;1.00;;;;;;4979917;28;20430;-61
2020/12/28 12:20:40;;;;;;;5.70;2.85;;;6.50;99.90;;;;;;4996615;28;20184;-62
2020/12/28 12:23:06;;;;;;;3.50;2.90;;;6.60;99.90;;;;;;4996483;28;20191;-61
2020/12/28 12:25:33;;;;;;;5.20;2.97;;;6.80;95.60;;;;;;4995682;28;20193;-61
2020/12/28 12:27:59;;;;;;;6.65;3.78;;;6.60;1.00;;;;;;4995809;28;20759;-62
2020/12/28 12:30:25;;;;;;;3.33;2.60;;;6.70;1.00;;;;;;4996722;28;20270;-60
2020/12/28 12:32:51;;;;;;;2.70;2.08;;;6.70;99.90;;;;;;4995762;28;20211;-61
2020/12/28 12:35:17;;;;;;;2.78;2.40;;;6.70;1.00;;;;;;4992946;28;20567;-61
2020/12/28 12:37:43;;;;;;;3.85;2.83;;;6.70;1.00;;;;;;4976506;28;20176;-60
2020/12/28 12:40:09;;;;;;;3.20;2.77;;;6.50;1.00;;;;;;4976663;28;20223;-62
2020/12/28 12:42:34;;;;;;;3.10;2.80;;;6.40;99.90;;;;;;4978090;28;20290;-62
2020/12/28 12:45:00;;;;;;;3.13;2.83;;;6.40;1.00;;;;;;4994363;28;20187;-62
2020/12/28 12:47:25;;;;;;;3.83;2.67;;;6.60;1.00;;;;;;4995868;28;20176;-62
2020/12/28 12:49:51;;;;;;;3.60;2.40;;;6.80;99.90;;;;;;4995619;28;20202;-61
2020/12/28 12:52:18;;;;;;;3.83;3.03;;;6.80;99.90;;;;;;4995613;28;20191;-62
2020/12/28 12:54:44;;;;;;;5.30;3.38;;;6.80;99.90;;;;;;4994237;28;20202;-61
2020/12/28 12:57:11;;;;;;;3.78;2.83;;;6.70;99.90;;;;;;4995708;28;20443;-62
2020/12/28 13:02:24;;;;;;;2.83;2.63;;;6.70;99.90;;;;;;4996279;28;20595;-61
2020/12/28 13:04:49;;;;;;;3.00;2.40;;;6.60;99.90;;;;;;4986133;28;20200;-61
2020/12/28 13:07:15;;;;;;;4.03;2.90;;;6.60;1.00;;;;;;4973053;28;20183;-62